首页
METAR-TAF:

METAR-TAF

机场 :

Greer, 南卡罗来纳州, 美国

纬度: 34-53-02N, 经度: 082-13-15W, 海拔: 296米

当前天气观测

该预报发布于41分钟前的18:53 UTC
风速8节,风向西南
温度 29°C
湿度 55%
气压 1024 hPa
能見度: 16.1公里
天空无云

METAR: KGSP 231853Z 22008KT 10SM CLR 29/19 A3023 RMK AO2 LTG DSNT N SLP224 T02940194

时间: 15:34 (19:34 UTC)

预报

该预报发布于2小时和11分钟前的17:23 UTC
预报有效从23日的 18点(UTC)到 24日的 18点(UTC)
风速9节,风向西转西南
能見度: 10公里
散云层高于6000英尺
从 24日的 0000点(UTC)
风速4节,风向西转西南
能見度: 10公里
少量云层高于7000英尺
散云层高于20000英尺
从 24日的 1500点(UTC)
风速7节,风向西
能見度: 10公里
少量云层高于6000英尺

TAF: KGSP 231723Z 2318/2418 24009KT P6SM SCT060 FM240000 24004KT P6SM FEW070 SCT200 FM241500 28007KT P6SM FEW060

超过4000个机场的气象观测和天气预报(METAR&TAF报告)。

可查询的气象台以黄色和红色小点在地图上表示。

将鼠标移到小点上方,可查看气象台名称。

然后点击查看天气观测和预报。

如需切换地图:点击带黑十字的绿色按钮放大地图;点击带横线的绿色按钮缩小地图;或者点击绿色箭头查看邻近地区的地图。


METAR-TAF: